sensor_id;sensor_type;location;lat;lon;timestamp;P1;durP1;ratioP1;P2;durP2;ratioP2
23260;SDS011;11799;47.740;-3.390;2023-02-28T00:00:36;10.88;;;4.25;;
23260;SDS011;11799;47.740;-3.390;2023-02-28T00:03:02;12.27;;;4.18;;
23260;SDS011;11799;47.740;-3.390;2023-02-28T00:05:28;10.35;;;4.40;;
23260;SDS011;11799;47.740;-3.390;2023-02-28T00:07:54;8.98;;;4.50;;
23260;SDS011;11799;47.740;-3.390;2023-02-28T00:10:25;10.60;;;4.20;;
23260;SDS011;11799;47.740;-3.390;2023-02-28T00:12:53;10.93;;;4.22;;
23260;SDS011;11799;47.740;-3.390;2023-02-28T00:15:22;9.27;;;4.30;;
23260;SDS011;11799;47.740;-3.390;2023-02-28T00:17:48;9.98;;;5.18;;
23260;SDS011;11799;47.740;-3.390;2023-02-28T00:20:14;11.77;;;4.97;;
23260;SDS011;11799;47.740;-3.390;2023-02-28T00:22:41;7.93;;;4.28;;
23260;SDS011;11799;47.740;-3.390;2023-02-28T00:25:08;12.85;;;4.20;;
23260;SDS011;11799;47.740;-3.390;2023-02-28T00:27:36;10.95;;;4.78;;
23260;SDS011;11799;47.740;-3.390;2023-02-28T00:30:03;10.50;;;4.30;;
23260;SDS011;11799;47.740;-3.390;2023-02-28T00:32:30;8.88;;;4.05;;
23260;SDS011;11799;47.740;-3.390;2023-02-28T00:34:56;9.02;;;3.80;;
23260;SDS011;11799;47.740;-3.390;2023-02-28T00:37:22;12.30;;;4.43;;
23260;SDS011;11799;47.740;-3.390;2023-02-28T00:39:47;7.72;;;3.88;;
23260;SDS011;11799;47.740;-3.390;2023-02-28T00:42:14;9.30;;;4.10;;
23260;SDS011;11799;47.740;-3.390;2023-02-28T00:44:40;12.98;;;5.10;;
23260;SDS011;11799;47.740;-3.390;2023-02-28T00:47:06;9.52;;;4.18;;
23260;SDS011;11799;47.740;-3.390;2023-02-28T00:49:31;19.58;;;4.70;;
23260;SDS011;11799;47.740;-3.390;2023-02-28T00:51:57;15.43;;;4.22;;
23260;SDS011;11799;47.740;-3.390;2023-02-28T00:54:25;8.60;;;4.40;;
23260;SDS011;11799;47.740;-3.390;2023-02-28T00:56:51;7.95;;;4.53;;
23260;SDS011;11799;47.740;-3.390;2023-02-28T00:59:16;9.27;;;4.68;;
23260;SDS011;11799;47.740;-3.390;2023-02-28T01:01:44;13.95;;;4.38;;
23260;SDS011;11799;47.740;-3.390;2023-02-28T01:04:10;11.88;;;5.28;;
23260;SDS011;11799;47.740;-3.390;2023-02-28T01:06:37;6.65;;;4.00;;
23260;SDS011;11799;47.740;-3.390;2023-02-28T01:09:03;8.32;;;4.47;;
23260;SDS011;11799;47.740;-3.390;2023-02-28T01:11:30;11.38;;;4.22;;
23260;SDS011;11799;47.740;-3.390;2023-02-28T01:13:56;6.90;;;4.57;;
23260;SDS011;11799;47.740;-3.390;2023-02-28T01:16:22;12.27;;;5.03;;
23260;SDS011;11799;47.740;-3.390;2023-02-28T01:18:48;13.80;;;4.53;;
23260;SDS011;11799;47.740;-3.390;2023-02-28T01:21:15;12.25;;;4.32;;
23260;SDS011;11799;47.740;-3.390;2023-02-28T01:23:43;11.73;;;4.40;;
23260;SDS011;11799;47.740;-3.390;2023-02-28T01:26:10;7.70;;;4.22;;
23260;SDS011;11799;47.740;-3.390;2023-02-28T01:28:38;6.85;;;4.30;;
23260;SDS011;11799;47.740;-3.390;2023-02-28T01:31:05;9.77;;;4.50;;
23260;SDS011;11799;47.740;-3.390;2023-02-28T01:33:31;8.05;;;4.53;;
23260;SDS011;11799;47.740;-3.390;2023-02-28T01:36:05;11.95;;;4.35;;
23260;SDS011;11799;47.740;-3.390;2023-02-28T01:38:34;13.25;;;4.05;;
23260;SDS011;11799;47.740;-3.390;2023-02-28T01:41:00;12.40;;;4.15;;
23260;SDS011;11799;47.740;-3.390;2023-02-28T01:43:27;10.57;;;4.40;;
23260;SDS011;11799;47.740;-3.390;2023-02-28T01:45:56;13.75;;;4.93;;
23260;SDS011;11799;47.740;-3.390;2023-02-28T01:48:27;9.63;;;4.28;;
23260;SDS011;11799;47.740;-3.390;2023-02-28T01:50:59;12.13;;;4.65;;
23260;SDS011;11799;47.740;-3.390;2023-02-28T01:53:32;9.07;;;4.18;;
23260;SDS011;11799;47.740;-3.390;2023-02-28T01:56:02;8.98;;;5.00;;
23260;SDS011;11799;47.740;-3.390;2023-02-28T01:58:31;7.80;;;3.45;;
23260;SDS011;11799;47.740;-3.390;2023-02-28T02:00:57;10.35;;;4.43;;
23260;SDS011;11799;47.740;-3.390;2023-02-28T02:03:23;9.90;;;5.10;;
23260;SDS011;11799;47.740;-3.390;2023-02-28T02:05:48;10.75;;;4.20;;
23260;SDS011;11799;47.740;-3.390;2023-02-28T02:08:19;11.45;;;4.60;;
23260;SDS011;11799;47.740;-3.390;2023-02-28T02:10:50;11.18;;;4.50;;
23260;SDS011;11799;47.740;-3.390;2023-02-28T02:38:30;13.43;;;5.22;;
23260;SDS011;11799;47.740;-3.390;2023-02-28T02:40:33;8.30;;;5.07;;
23260;SDS011;11799;47.740;-3.390;2023-02-28T02:43:06;9.30;;;4.85;;
23260;SDS011;11799;47.740;-3.390;2023-02-28T02:48:03;10.88;;;4.75;;
23260;SDS011;11799;47.740;-3.390;2023-02-28T02:50:35;10.10;;;5.35;;
23260;SDS011;11799;47.740;-3.390;2023-02-28T02:53:04;8.85;;;5.05;;
23260;SDS011;11799;47.740;-3.390;2023-02-28T02:55:33;9.20;;;4.60;;
23260;SDS011;11799;47.740;-3.390;2023-02-28T02:58:03;6.60;;;3.88;;
23260;SDS011;11799;47.740;-3.390;2023-02-28T03:00:33;9.18;;;4.97;;
23260;SDS011;11799;47.740;-3.390;2023-02-28T03:03:02;9.88;;;5.05;;
23260;SDS011;11799;47.740;-3.390;2023-02-28T03:05:34;10.15;;;5.00;;
23260;SDS011;11799;47.740;-3.390;2023-02-28T03:08:07;11.00;;;5.05;;
23260;SDS011;11799;47.740;-3.390;2023-02-28T03:10:35;7.88;;;4.90;;
23260;SDS011;11799;47.740;-3.390;2023-02-28T03:13:28;9.80;;;4.97;;
23260;SDS011;11799;47.740;-3.390;2023-02-28T03:26:28;11.43;;;5.55;;
23260;SDS011;11799;47.740;-3.390;2023-02-28T03:28:58;11.95;;;5.32;;
23260;SDS011;11799;47.740;-3.390;2023-02-28T03:34:00;11.38;;;5.88;;
23260;SDS011;11799;47.740;-3.390;2023-02-28T03:36:30;13.40;;;6.15;;
23260;SDS011;11799;47.740;-3.390;2023-02-28T03:39:10;9.48;;;5.45;;
23260;SDS011;11799;47.740;-3.390;2023-02-28T03:41:49;10.75;;;5.55;;
23260;SDS011;11799;47.740;-3.390;2023-02-28T03:44:34;10.93;;;5.50;;
23260;SDS011;11799;47.740;-3.390;2023-02-28T03:47:09;10.18;;;5.75;;
23260;SDS011;11799;47.740;-3.390;2023-02-28T03:49:51;7.03;;;5.03;;
23260;SDS011;11799;47.740;-3.390;2023-02-28T03:52:21;9.63;;;5.90;;
23260;SDS011;11799;47.740;-3.390;2023-02-28T03:54:51;12.37;;;6.10;;
23260;SDS011;11799;47.740;-3.390;2023-02-28T04:00:37;11.95;;;6.18;;
23260;SDS011;11799;47.740;-3.390;2023-02-28T04:03:05;16.27;;;6.35;;
23260;SDS011;11799;47.740;-3.390;2023-02-28T04:05:31;9.23;;;6.00;;
23260;SDS011;11799;47.740;-3.390;2023-02-28T04:08:05;11.80;;;6.30;;
23260;SDS011;11799;47.740;-3.390;2023-02-28T04:10:31;9.25;;;6.13;;
23260;SDS011;11799;47.740;-3.390;2023-02-28T04:12:57;12.05;;;6.22;;
23260;SDS011;11799;47.740;-3.390;2023-02-28T04:15:22;12.88;;;6.38;;
23260;SDS011;11799;47.740;-3.390;2023-02-28T04:17:49;10.35;;;5.90;;
23260;SDS011;11799;47.740;-3.390;2023-02-28T04:20:15;10.50;;;5.90;;
23260;SDS011;11799;47.740;-3.390;2023-02-28T04:22:41;8.90;;;6.15;;
23260;SDS011;11799;47.740;-3.390;2023-02-28T04:25:07;10.45;;;6.00;;
23260;SDS011;11799;47.740;-3.390;2023-02-28T04:27:33;10.40;;;6.25;;
23260;SDS011;11799;47.740;-3.390;2023-02-28T04:29:58;12.40;;;6.55;;
23260;SDS011;11799;47.740;-3.390;2023-02-28T04:32:24;12.05;;;6.10;;
23260;SDS011;11799;47.740;-3.390;2023-02-28T04:34:50;12.80;;;6.30;;
23260;SDS011;11799;47.740;-3.390;2023-02-28T04:37:15;13.25;;;6.43;;
23260;SDS011;11799;47.740;-3.390;2023-02-28T04:39:41;11.82;;;6.50;;
23260;SDS011;11799;47.740;-3.390;2023-02-28T04:42:07;10.95;;;6.78;;
23260;SDS011;11799;47.740;-3.390;2023-02-28T04:44:34;11.48;;;6.50;;
23260;SDS011;11799;47.740;-3.390;2023-02-28T04:47:00;13.23;;;6.82;;
23260;SDS011;11799;47.740;-3.390;2023-02-28T04:49:25;13.32;;;6.35;;
23260;SDS011;11799;47.740;-3.390;2023-02-28T04:51:51;10.73;;;6.43;;
23260;SDS011;11799;47.740;-3.390;2023-02-28T04:54:17;13.00;;;6.53;;
23260;SDS011;11799;47.740;-3.390;2023-02-28T04:56:43;11.60;;;6.72;;
23260;SDS011;11799;47.740;-3.390;2023-02-28T04:59:09;12.85;;;6.53;;
23260;SDS011;11799;47.740;-3.390;2023-02-28T05:01:34;17.02;;;6.78;;
23260;SDS011;11799;47.740;-3.390;2023-02-28T05:04:01;13.15;;;6.25;;
23260;SDS011;11799;47.740;-3.390;2023-02-28T05:06:29;9.88;;;6.45;;
23260;SDS011;11799;47.740;-3.390;2023-02-28T05:08:57;16.45;;;7.05;;
23260;SDS011;11799;47.740;-3.390;2023-02-28T05:11:24;10.18;;;6.40;;
23260;SDS011;11799;47.740;-3.390;2023-02-28T05:13:54;12.30;;;6.63;;
23260;SDS011;11799;47.740;-3.390;2023-02-28T05:16:20;16.60;;;7.60;;
23260;SDS011;11799;47.740;-3.390;2023-02-28T05:18:46;14.13;;;7.22;;
23260;SDS011;11799;47.740;-3.390;2023-02-28T05:21:25;15.13;;;7.07;;
23260;SDS011;11799;47.740;-3.390;2023-02-28T05:24:00;13.45;;;6.90;;
23260;SDS011;11799;47.740;-3.390;2023-02-28T05:26:27;12.60;;;7.35;;
23260;SDS011;11799;47.740;-3.390;2023-02-28T05:28:53;15.38;;;7.75;;
23260;SDS011;11799;47.740;-3.390;2023-02-28T05:31:20;11.13;;;6.95;;
23260;SDS011;11799;47.740;-3.390;2023-02-28T05:33:46;12.55;;;6.85;;
23260;SDS011;11799;47.740;-3.390;2023-02-28T05:36:11;14.93;;;7.15;;
23260;SDS011;11799;47.740;-3.390;2023-02-28T05:38:37;9.38;;;6.90;;
23260;SDS011;11799;47.740;-3.390;2023-02-28T05:41:07;13.57;;;7.00;;
23260;SDS011;11799;47.740;-3.390;2023-02-28T05:43:33;13.88;;;7.13;;
23260;SDS011;11799;47.740;-3.390;2023-02-28T05:46:01;13.75;;;7.28;;
23260;SDS011;11799;47.740;-3.390;2023-02-28T05:48:28;11.93;;;7.22;;
23260;SDS011;11799;47.740;-3.390;2023-02-28T05:50:53;11.75;;;7.20;;
23260;SDS011;11799;47.740;-3.390;2023-02-28T05:53:19;13.95;;;7.50;;
23260;SDS011;11799;47.740;-3.390;2023-02-28T05:55:44;14.90;;;7.68;;
23260;SDS011;11799;47.740;-3.390;2023-02-28T05:58:10;13.07;;;7.38;;
23260;SDS011;11799;47.740;-3.390;2023-02-28T06:00:35;17.45;;;8.18;;
23260;SDS011;11799;47.740;-3.390;2023-02-28T06:03:01;14.05;;;7.53;;
23260;SDS011;11799;47.740;-3.390;2023-02-28T06:05:27;12.35;;;7.40;;
23260;SDS011;11799;47.740;-3.390;2023-02-28T06:07:53;13.18;;;8.02;;
23260;SDS011;11799;47.740;-3.390;2023-02-28T06:10:18;14.40;;;7.50;;
23260;SDS011;11799;47.740;-3.390;2023-02-28T06:12:44;13.70;;;7.82;;
23260;SDS011;11799;47.740;-3.390;2023-02-28T06:15:13;12.48;;;8.18;;
23260;SDS011;11799;47.740;-3.390;2023-02-28T06:17:40;18.40;;;8.68;;
23260;SDS011;11799;47.740;-3.390;2023-02-28T06:20:07;16.17;;;8.13;;
23260;SDS011;11799;47.740;-3.390;2023-02-28T06:22:35;17.08;;;8.40;;
23260;SDS011;11799;47.740;-3.390;2023-02-28T06:25:01;11.82;;;8.10;;
23260;SDS011;11799;47.740;-3.390;2023-02-28T06:27:27;12.55;;;8.23;;
23260;SDS011;11799;47.740;-3.390;2023-02-28T06:29:55;15.25;;;8.70;;
23260;SDS011;11799;47.740;-3.390;2023-02-28T06:32:21;15.75;;;8.50;;
23260;SDS011;11799;47.740;-3.390;2023-02-28T06:34:47;15.93;;;7.97;;
23260;SDS011;11799;47.740;-3.390;2023-02-28T06:37:13;13.48;;;7.75;;
23260;SDS011;11799;47.740;-3.390;2023-02-28T06:39:38;12.52;;;8.52;;
23260;SDS011;11799;47.740;-3.390;2023-02-28T06:42:05;12.52;;;7.38;;
23260;SDS011;11799;47.740;-3.390;2023-02-28T06:44:31;15.20;;;7.50;;
23260;SDS011;11799;47.740;-3.390;2023-02-28T06:47:00;14.55;;;6.70;;
23260;SDS011;11799;47.740;-3.390;2023-02-28T06:49:30;14.40;;;8.27;;
23260;SDS011;11799;47.740;-3.390;2023-02-28T06:51:57;11.68;;;8.05;;
23260;SDS011;11799;47.740;-3.390;2023-02-28T06:54:23;15.85;;;8.60;;
23260;SDS011;11799;47.740;-3.390;2023-02-28T06:56:49;12.00;;;8.65;;
23260;SDS011;11799;47.740;-3.390;2023-02-28T06:59:14;15.23;;;8.85;;
23260;SDS011;11799;47.740;-3.390;2023-02-28T07:01:40;17.40;;;8.80;;
23260;SDS011;11799;47.740;-3.390;2023-02-28T07:04:06;16.98;;;9.85;;
23260;SDS011;11799;47.740;-3.390;2023-02-28T07:06:32;19.92;;;9.57;;
23260;SDS011;11799;47.740;-3.390;2023-02-28T07:08:58;15.65;;;8.35;;
23260;SDS011;11799;47.740;-3.390;2023-02-28T07:11:25;19.02;;;9.38;;
23260;SDS011;11799;47.740;-3.390;2023-02-28T07:13:55;19.33;;;9.57;;
23260;SDS011;11799;47.740;-3.390;2023-02-28T07:16:21;16.92;;;10.07;;
23260;SDS011;11799;47.740;-3.390;2023-02-28T07:18:48;16.95;;;9.68;;
23260;SDS011;11799;47.740;-3.390;2023-02-28T07:21:14;19.83;;;9.52;;
23260;SDS011;11799;47.740;-3.390;2023-02-28T07:23:40;17.92;;;9.80;;
23260;SDS011;11799;47.740;-3.390;2023-02-28T07:26:07;17.52;;;9.93;;
23260;SDS011;11799;47.740;-3.390;2023-02-28T07:28:40;15.27;;;9.40;;
23260;SDS011;11799;47.740;-3.390;2023-02-28T07:31:10;16.42;;;9.35;;
23260;SDS011;11799;47.740;-3.390;2023-02-28T07:33:37;15.68;;;9.90;;
23260;SDS011;11799;47.740;-3.390;2023-02-28T07:36:03;20.98;;;11.20;;
23260;SDS011;11799;47.740;-3.390;2023-02-28T07:38:33;16.77;;;10.38;;
23260;SDS011;11799;47.740;-3.390;2023-02-28T07:40:59;14.70;;;9.30;;
23260;SDS011;11799;47.740;-3.390;2023-02-28T07:43:25;16.50;;;10.18;;
23260;SDS011;11799;47.740;-3.390;2023-02-28T07:45:50;16.83;;;10.13;;
23260;SDS011;11799;47.740;-3.390;2023-02-28T07:48:16;14.70;;;10.50;;
23260;SDS011;11799;47.740;-3.390;2023-02-28T07:50:41;20.05;;;10.40;;
23260;SDS011;11799;47.740;-3.390;2023-02-28T07:53:07;18.98;;;10.75;;
23260;SDS011;11799;47.740;-3.390;2023-02-28T07:55:32;17.45;;;10.32;;
23260;SDS011;11799;47.740;-3.390;2023-02-28T07:57:58;14.63;;;9.82;;
23260;SDS011;11799;47.740;-3.390;2023-02-28T08:00:24;15.88;;;9.90;;
23260;SDS011;11799;47.740;-3.390;2023-02-28T08:02:50;21.13;;;11.10;;
23260;SDS011;11799;47.740;-3.390;2023-02-28T08:05:16;19.35;;;10.80;;
23260;SDS011;11799;47.740;-3.390;2023-02-28T08:07:42;17.10;;;10.32;;
23260;SDS011;11799;47.740;-3.390;2023-02-28T08:10:08;20.85;;;10.88;;
23260;SDS011;11799;47.740;-3.390;2023-02-28T08:12:35;18.65;;;11.57;;
23260;SDS011;11799;47.740;-3.390;2023-02-28T08:15:01;19.25;;;11.40;;
23260;SDS011;11799;47.740;-3.390;2023-02-28T08:17:26;22.38;;;12.27;;
23260;SDS011;11799;47.740;-3.390;2023-02-28T08:19:52;20.13;;;12.15;;
23260;SDS011;11799;47.740;-3.390;2023-02-28T08:22:18;19.80;;;11.95;;
23260;SDS011;11799;47.740;-3.390;2023-02-28T08:24:43;19.58;;;11.35;;
23260;SDS011;11799;47.740;-3.390;2023-02-28T08:27:09;22.83;;;12.43;;
23260;SDS011;11799;47.740;-3.390;2023-02-28T08:29:38;19.10;;;12.48;;
23260;SDS011;11799;47.740;-3.390;2023-02-28T08:32:04;22.92;;;12.85;;
23260;SDS011;11799;47.740;-3.390;2023-02-28T08:34:31;23.10;;;12.63;;
23260;SDS011;11799;47.740;-3.390;2023-02-28T08:36:56;22.70;;;12.32;;
23260;SDS011;11799;47.740;-3.390;2023-02-28T08:39:22;19.05;;;12.25;;
23260;SDS011;11799;47.740;-3.390;2023-02-28T08:41:47;21.00;;;12.38;;
23260;SDS011;11799;47.740;-3.390;2023-02-28T08:44:13;20.55;;;12.60;;
23260;SDS011;11799;47.740;-3.390;2023-02-28T08:46:38;18.85;;;12.40;;
23260;SDS011;11799;47.740;-3.390;2023-02-28T08:49:04;19.55;;;12.15;;
23260;SDS011;11799;47.740;-3.390;2023-02-28T08:51:29;22.20;;;12.05;;
23260;SDS011;11799;47.740;-3.390;2023-02-28T08:53:57;19.50;;;12.48;;
23260;SDS011;11799;47.740;-3.390;2023-02-28T08:56:25;19.38;;;12.55;;
23260;SDS011;11799;47.740;-3.390;2023-02-28T08:58:53;18.45;;;12.07;;
23260;SDS011;11799;47.740;-3.390;2023-02-28T09:01:23;19.92;;;12.10;;
23260;SDS011;11799;47.740;-3.390;2023-02-28T09:03:52;18.42;;;12.43;;
23260;SDS011;11799;47.740;-3.390;2023-02-28T09:06:18;18.90;;;12.30;;
23260;SDS011;11799;47.740;-3.390;2023-02-28T09:08:45;21.02;;;12.80;;
23260;SDS011;11799;47.740;-3.390;2023-02-28T09:11:11;19.08;;;12.40;;
23260;SDS011;11799;47.740;-3.390;2023-02-28T09:13:37;19.88;;;13.20;;
23260;SDS011;11799;47.740;-3.390;2023-02-28T09:16:04;19.20;;;13.25;;
23260;SDS011;11799;47.740;-3.390;2023-02-28T09:18:30;22.25;;;13.75;;
23260;SDS011;11799;47.740;-3.390;2023-02-28T09:20:56;18.60;;;12.52;;
23260;SDS011;11799;47.740;-3.390;2023-02-28T09:23:22;19.13;;;12.70;;
23260;SDS011;11799;47.740;-3.390;2023-02-28T09:25:53;19.85;;;13.20;;
23260;SDS011;11799;47.740;-3.390;2023-02-28T09:28:20;17.35;;;11.93;;
23260;SDS011;11799;47.740;-3.390;2023-02-28T09:30:50;19.48;;;12.38;;
23260;SDS011;11799;47.740;-3.390;2023-02-28T09:33:18;17.90;;;11.60;;
23260;SDS011;11799;47.740;-3.390;2023-02-28T09:35:48;19.88;;;12.90;;
23260;SDS011;11799;47.740;-3.390;2023-02-28T09:38:22;20.98;;;12.95;;
23260;SDS011;11799;47.740;-3.390;2023-02-28T09:40:52;20.40;;;13.10;;
23260;SDS011;11799;47.740;-3.390;2023-02-28T09:43:21;18.60;;;12.27;;
23260;SDS011;11799;47.740;-3.390;2023-02-28T09:45:56;20.17;;;12.27;;
23260;SDS011;11799;47.740;-3.390;2023-02-28T09:48:29;17.40;;;11.50;;
23260;SDS011;11799;47.740;-3.390;2023-02-28T09:51:04;17.20;;;11.68;;
23260;SDS011;11799;47.740;-3.390;2023-02-28T09:53:36;16.42;;;11.43;;
23260;SDS011;11799;47.740;-3.390;2023-02-28T09:56:06;18.08;;;11.68;;
23260;SDS011;11799;47.740;-3.390;2023-02-28T09:58:37;15.82;;;11.73;;
23260;SDS011;11799;47.740;-3.390;2023-02-28T10:07:05;12.93;;;9.60;;
23260;SDS011;11799;47.740;-3.390;2023-02-28T10:09:43;15.55;;;9.43;;
23260;SDS011;11799;47.740;-3.390;2023-02-28T10:12:11;14.10;;;9.75;;
23260;SDS011;11799;47.740;-3.390;2023-02-28T10:14:39;12.38;;;9.05;;
23260;SDS011;11799;47.740;-3.390;2023-02-28T10:17:15;14.20;;;8.70;;
23260;SDS011;11799;47.740;-3.390;2023-02-28T10:25:53;11.48;;;8.60;;
23260;SDS011;11799;47.740;-3.390;2023-02-28T10:28:22;15.50;;;9.43;;
23260;SDS011;11799;47.740;-3.390;2023-02-28T10:30:51;14.15;;;8.68;;
23260;SDS011;11799;47.740;-3.390;2023-02-28T10:36:08;13.73;;;9.88;;
23260;SDS011;11799;47.740;-3.390;2023-02-28T10:38:39;14.10;;;10.00;;
23260;SDS011;11799;47.740;-3.390;2023-02-28T10:41:06;15.13;;;9.55;;
23260;SDS011;11799;47.740;-3.390;2023-02-28T10:43:33;15.48;;;10.95;;
23260;SDS011;11799;47.740;-3.390;2023-02-28T10:48:43;14.23;;;10.43;;
23260;SDS011;11799;47.740;-3.390;2023-02-28T10:51:11;15.63;;;10.60;;
23260;SDS011;11799;47.740;-3.390;2023-02-28T10:53:46;16.50;;;10.35;;
23260;SDS011;11799;47.740;-3.390;2023-02-28T10:56:18;14.93;;;9.68;;
23260;SDS011;11799;47.740;-3.390;2023-02-28T10:58:55;14.55;;;10.15;;
23260;SDS011;11799;47.740;-3.390;2023-02-28T11:01:24;14.38;;;9.95;;
23260;SDS011;11799;47.740;-3.390;2023-02-28T11:04:18;10.70;;;8.05;;
23260;SDS011;11799;47.740;-3.390;2023-02-28T11:06:46;12.50;;;8.98;;
23260;SDS011;11799;47.740;-3.390;2023-02-28T11:09:23;11.55;;;7.60;;
23260;SDS011;11799;47.740;-3.390;2023-02-28T11:11:54;13.50;;;8.55;;
23260;SDS011;11799;47.740;-3.390;2023-02-28T11:14:30;11.93;;;8.20;;
23260;SDS011;11799;47.740;-3.390;2023-02-28T11:17:03;14.27;;;8.27;;
23260;SDS011;11799;47.740;-3.390;2023-02-28T11:19:43;11.63;;;8.77;;
23260;SDS011;11799;47.740;-3.390;2023-02-28T11:22:11;12.38;;;9.38;;
23260;SDS011;11799;47.740;-3.390;2023-02-28T11:24:46;11.60;;;8.60;;
23260;SDS011;11799;47.740;-3.390;2023-02-28T11:29:57;13.52;;;8.75;;
23260;SDS011;11799;47.740;-3.390;2023-02-28T11:32:24;14.73;;;9.25;;
23260;SDS011;11799;47.740;-3.390;2023-02-28T11:37:28;15.13;;;9.82;;
23260;SDS011;11799;47.740;-3.390;2023-02-28T11:39:56;17.05;;;10.63;;
23260;SDS011;11799;47.740;-3.390;2023-02-28T11:55:54;14.90;;;9.57;;
23260;SDS011;11799;47.740;-3.390;2023-02-28T12:07:02;14.98;;;9.70;;
23260;SDS011;11799;47.740;-3.390;2023-02-28T12:09:44;13.53;;;8.87;;
23260;SDS011;11799;47.740;-3.390;2023-02-28T12:12:29;13.43;;;8.88;;
23260;SDS011;11799;47.740;-3.390;2023-02-28T12:18:04;13.27;;;9.05;;
23260;SDS011;11799;47.740;-3.390;2023-02-28T12:23:24;12.18;;;8.48;;
23260;SDS011;11799;47.740;-3.390;2023-02-28T12:28:40;11.23;;;7.85;;
23260;SDS011;11799;47.740;-3.390;2023-02-28T12:33:50;11.55;;;7.43;;
23260;SDS011;11799;47.740;-3.390;2023-02-28T12:36:19;9.80;;;7.82;;
23260;SDS011;11799;47.740;-3.390;2023-02-28T12:38:53;12.20;;;7.45;;
23260;SDS011;11799;47.740;-3.390;2023-02-28T12:41:36;12.55;;;7.30;;
23260;SDS011;11799;47.740;-3.390;2023-02-28T12:44:12;12.52;;;7.50;;
23260;SDS011;11799;47.740;-3.390;2023-02-28T12:46:44;16.70;;;8.23;;
23260;SDS011;11799;47.740;-3.390;2023-02-28T12:49:25;10.02;;;7.40;;
23260;SDS011;11799;47.740;-3.390;2023-02-28T12:51:56;9.88;;;7.47;;
23260;SDS011;11799;47.740;-3.390;2023-02-28T12:59:52;9.55;;;6.53;;
23260;SDS011;11799;47.740;-3.390;2023-02-28T13:10:03;6.72;;;5.60;;
23260;SDS011;11799;47.740;-3.390;2023-02-28T13:12:32;9.25;;;6.20;;
23260;SDS011;11799;47.740;-3.390;2023-02-28T13:15:07;8.60;;;6.10;;
23260;SDS011;11799;47.740;-3.390;2023-02-28T13:17:58;11.15;;;6.93;;
23260;SDS011;11799;47.740;-3.390;2023-02-28T13:20:31;8.23;;;6.70;;
23260;SDS011;11799;47.740;-3.390;2023-02-28T13:23:02;9.82;;;6.72;;
23260;SDS011;11799;47.740;-3.390;2023-02-28T13:28:02;8.52;;;6.20;;
23260;SDS011;11799;47.740;-3.390;2023-02-28T13:33:26;9.00;;;6.50;;
23260;SDS011;11799;47.740;-3.390;2023-02-28T13:36:23;8.73;;;6.05;;
23260;SDS011;11799;47.740;-3.390;2023-02-28T13:49:31;7.93;;;6.18;;
23260;SDS011;11799;47.740;-3.390;2023-02-28T13:52:10;6.78;;;5.20;;
23260;SDS011;11799;47.740;-3.390;2023-02-28T14:06:16;6.20;;;4.93;;
23260;SDS011;11799;47.740;-3.390;2023-02-28T14:14:06;7.22;;;4.85;;
23260;SDS011;11799;47.740;-3.390;2023-02-28T14:16:40;6.90;;;4.60;;
23260;SDS011;11799;47.740;-3.390;2023-02-28T14:19:16;7.53;;;5.03;;
23260;SDS011;11799;47.740;-3.390;2023-02-28T14:21:52;6.93;;;5.18;;
23260;SDS011;11799;47.740;-3.390;2023-02-28T14:27:16;8.18;;;5.13;;
23260;SDS011;11799;47.740;-3.390;2023-02-28T14:33:01;8.20;;;4.77;;
23260;SDS011;11799;47.740;-3.390;2023-02-28T14:41:32;8.50;;;4.55;;
23260;SDS011;11799;47.740;-3.390;2023-02-28T14:44:02;6.50;;;4.28;;
23260;SDS011;11799;47.740;-3.390;2023-02-28T14:46:38;5.90;;;4.55;;
23260;SDS011;11799;47.740;-3.390;2023-02-28T14:49:06;6.53;;;4.45;;
23260;SDS011;11799;47.740;-3.390;2023-02-28T14:51:37;6.43;;;4.63;;
23260;SDS011;11799;47.740;-3.390;2023-02-28T14:54:03;6.47;;;4.57;;
23260;SDS011;11799;47.740;-3.390;2023-02-28T14:56:36;8.27;;;5.07;;
23260;SDS011;11799;47.740;-3.390;2023-02-28T14:59:03;5.80;;;4.63;;
23260;SDS011;11799;47.740;-3.390;2023-02-28T15:01:30;7.80;;;4.80;;
23260;SDS011;11799;47.740;-3.390;2023-02-28T15:04:03;7.43;;;5.13;;
23260;SDS011;11799;47.740;-3.390;2023-02-28T15:06:30;8.65;;;5.28;;
23260;SDS011;11799;47.740;-3.390;2023-02-28T15:09:06;11.32;;;5.38;;
23260;SDS011;11799;47.740;-3.390;2023-02-28T15:11:34;10.35;;;6.22;;
23260;SDS011;11799;47.740;-3.390;2023-02-28T15:14:01;10.45;;;6.15;;
23260;SDS011;11799;47.740;-3.390;2023-02-28T15:16:36;9.10;;;5.95;;
23260;SDS011;11799;47.740;-3.390;2023-02-28T15:19:16;9.85;;;5.75;;
23260;SDS011;11799;47.740;-3.390;2023-02-28T15:24:54;7.38;;;5.85;;
23260;SDS011;11799;47.740;-3.390;2023-02-28T15:27:24;7.03;;;5.53;;
23260;SDS011;11799;47.740;-3.390;2023-02-28T15:29:59;8.07;;;4.82;;
23260;SDS011;11799;47.740;-3.390;2023-02-28T15:32:33;7.63;;;5.43;;
23260;SDS011;11799;47.740;-3.390;2023-02-28T15:37:50;7.57;;;4.80;;
23260;SDS011;11799;47.740;-3.390;2023-02-28T15:40:26;5.93;;;5.32;;
23260;SDS011;11799;47.740;-3.390;2023-02-28T15:42:58;10.63;;;5.32;;
23260;SDS011;11799;47.740;-3.390;2023-02-28T15:45:38;8.55;;;4.55;;
23260;SDS011;11799;47.740;-3.390;2023-02-28T15:48:14;11.50;;;5.30;;
23260;SDS011;11799;47.740;-3.390;2023-02-28T15:50:55;7.20;;;4.90;;
23260;SDS011;11799;47.740;-3.390;2023-02-28T15:53:27;10.27;;;4.93;;
23260;SDS011;11799;47.740;-3.390;2023-02-28T15:55:58;7.82;;;5.20;;
23260;SDS011;11799;47.740;-3.390;2023-02-28T15:58:26;8.68;;;5.20;;
23260;SDS011;11799;47.740;-3.390;2023-02-28T16:01:16;11.38;;;5.25;;
23260;SDS011;11799;47.740;-3.390;2023-02-28T16:03:49;9.02;;;5.25;;
23260;SDS011;11799;47.740;-3.390;2023-02-28T16:09:00;8.52;;;5.65;;
23260;SDS011;11799;47.740;-3.390;2023-02-28T16:11:27;12.57;;;5.65;;
23260;SDS011;11799;47.740;-3.390;2023-02-28T16:13:53;8.02;;;5.53;;
23260;SDS011;11799;47.740;-3.390;2023-02-28T16:16:23;10.45;;;5.53;;
23260;SDS011;11799;47.740;-3.390;2023-02-28T16:18:50;7.93;;;5.07;;
23260;SDS011;11799;47.740;-3.390;2023-02-28T16:21:16;8.00;;;5.38;;
23260;SDS011;11799;47.740;-3.390;2023-02-28T16:23:42;8.90;;;5.05;;
23260;SDS011;11799;47.740;-3.390;2023-02-28T16:26:08;8.68;;;5.07;;
23260;SDS011;11799;47.740;-3.390;2023-02-28T16:28:41;7.22;;;4.75;;
23260;SDS011;11799;47.740;-3.390;2023-02-28T16:31:06;7.43;;;4.20;;
23260;SDS011;11799;47.740;-3.390;2023-02-28T16:33:33;6.35;;;3.97;;
23260;SDS011;11799;47.740;-3.390;2023-02-28T16:35:59;8.70;;;4.10;;
23260;SDS011;11799;47.740;-3.390;2023-02-28T16:38:25;5.85;;;3.70;;
23260;SDS011;11799;47.740;-3.390;2023-02-28T16:40:59;5.72;;;3.40;;
23260;SDS011;11799;47.740;-3.390;2023-02-28T16:43:25;5.57;;;3.47;;
23260;SDS011;11799;47.740;-3.390;2023-02-28T16:45:55;4.47;;;2.95;;
23260;SDS011;11799;47.740;-3.390;2023-02-28T16:48:23;5.05;;;3.25;;
23260;SDS011;11799;47.740;-3.390;2023-02-28T16:50:50;6.10;;;3.40;;
23260;SDS011;11799;47.740;-3.390;2023-02-28T16:53:15;5.68;;;2.90;;
23260;SDS011;11799;47.740;-3.390;2023-02-28T16:55:41;6.80;;;3.60;;
23260;SDS011;11799;47.740;-3.390;2023-02-28T16:58:06;6.13;;;3.42;;
23260;SDS011;11799;47.740;-3.390;2023-02-28T17:00:40;7.50;;;3.25;;
23260;SDS011;11799;47.740;-3.390;2023-02-28T17:03:22;4.18;;;2.90;;
23260;SDS011;11799;47.740;-3.390;2023-02-28T17:05:50;8.07;;;3.28;;
23260;SDS011;11799;47.740;-3.390;2023-02-28T17:08:16;5.13;;;3.35;;
23260;SDS011;11799;47.740;-3.390;2023-02-28T17:10:42;5.82;;;2.92;;
23260;SDS011;11799;47.740;-3.390;2023-02-28T17:13:07;6.03;;;2.47;;
23260;SDS011;11799;47.740;-3.390;2023-02-28T17:15:34;5.53;;;2.63;;
23260;SDS011;11799;47.740;-3.390;2023-02-28T17:18:01;5.88;;;3.53;;
23260;SDS011;11799;47.740;-3.390;2023-02-28T17:20:27;5.38;;;2.40;;